Time;durP1;ratioP1;P1;durP2;ratioP2;P2;SDS_P1;SDS_P2;PMS_P1;PMS_P2;Temp;Humidity;BMP_temperature;BMP_pressure;BME280_temperature;BME280_humidity;BME280_pressure;Samples;Min_cycle;Max_cycle;Signal;HPM_P1;HPM_P2
2023/04/30 00:00:28;;;;;;;27.90;21.48;;;12.10;99.90;;;;;;5022902;28;20193;-75
2023/04/30 00:02:54;;;;;;;28.52;21.63;;;12.00;99.90;;;;;;5034797;28;20186;-77
2023/04/30 00:05:22;;;;;;;30.50;22.13;;;12.00;99.90;;;;;;5035865;28;20321;-78
2023/04/30 00:07:49;;;;;;;29.80;21.95;;;11.90;99.90;;;;;;5035841;28;20205;-76
2023/04/30 00:10:17;;;;;;;25.95;19.88;;;11.90;99.90;;;;;;5046971;28;20173;-77
2023/04/30 00:12:43;;;;;;;29.75;21.33;;;11.80;99.90;;;;;;5036793;28;20269;-75
2023/04/30 00:15:09;;;;;;;30.70;20.63;;;11.70;99.90;;;;;;5045205;28;20269;-78
2023/04/30 00:17:37;;;;;;;28.83;21.17;;;11.70;99.90;;;;;;5034147;28;20186;-77
2023/04/30 00:20:03;;;;;;;29.50;20.75;;;11.70;99.90;;;;;;5022875;28;20183;-77
2023/04/30 00:22:32;;;;;;;29.08;21.05;;;11.60;99.90;;;;;;5035078;28;20212;-76
2023/04/30 00:24:57;;;;;;;31.13;21.92;;;11.60;99.90;;;;;;5029421;28;20175;-77
2023/04/30 00:27:23;;;;;;;28.23;20.08;;;11.50;99.90;;;;;;5033206;28;20212;-76
2023/04/30 00:29:51;;;;;;;26.73;19.90;;;11.50;99.90;;;;;;5035397;28;20218;-73
2023/04/30 00:32:19;;;;;;;28.50;21.10;;;11.40;99.90;;;;;;5029504;28;20175;-78
2023/04/30 00:34:44;;;;;;;27.67;20.10;;;11.40;99.90;;;;;;5032965;28;20240;-74
2023/04/30 00:37:12;;;;;;;28.55;21.23;;;11.30;99.90;;;;;;5033833;28;20219;-73
2023/04/30 00:39:38;;;;;;;28.70;20.45;;;11.30;99.90;;;;;;5046953;28;20174;-77
2023/04/30 00:42:04;;;;;;;28.13;20.33;;;11.20;99.90;;;;;;5030699;28;20184;-74
2023/04/30 00:44:29;;;;;;;26.93;19.33;;;11.20;99.90;;;;;;5030033;28;20266;-77
2023/04/30 00:46:55;;;;;;;27.50;20.77;;;11.20;99.90;;;;;;5031778;28;20212;-76
2023/04/30 00:49:23;;;;;;;27.63;20.90;;;11.20;99.90;;;;;;5032105;28;20162;-78
2023/04/30 00:51:51;;;;;;;28.23;19.93;;;11.10;99.90;;;;;;5027963;28;20201;-72
2023/04/30 00:54:19;;;;;;;27.85;20.55;;;11.00;99.90;;;;;;5029022;28;20213;-78
2023/04/30 00:56:45;;;;;;;26.63;19.80;;;11.00;99.90;;;;;;5026056;28;20192;-76
2023/04/30 00:59:12;;;;;;;27.53;19.57;;;11.00;99.90;;;;;;5030914;28;20174;-77
2023/04/30 01:01:40;;;;;;;26.57;19.90;;;11.00;99.90;;;;;;5031080;28;20299;-78
2023/04/30 01:04:06;;;;;;;27.77;20.20;;;10.80;99.90;;;;;;5050203;28;20178;-77
2023/04/30 01:06:32;;;;;;;29.23;20.70;;;10.80;99.90;;;;;;5029755;28;20241;-77
2023/04/30 01:09:02;;;;;;;28.53;20.67;;;10.80;99.90;;;;;;5029967;28;20174;-66
2023/04/30 01:11:33;;;;;;;27.33;20.67;;;10.70;99.90;;;;;;5030864;28;20182;-63
2023/04/30 01:14:27;;;;;;;27.23;19.93;;;10.70;99.90;;;;;;5033135;28;20198;-63
2023/04/30 01:17:00;;;;;;;26.47;19.47;;;10.70;99.90;;;;;;5043001;28;20189;-63
2023/04/30 01:19:37;;;;;;;27.67;20.30;;;10.60;99.90;;;;;;5029982;28;20186;-63
2023/04/30 01:22:24;;;;;;;26.93;18.27;;;10.60;99.90;;;;;;5039077;28;20257;-63
2023/04/30 01:25:17;;;;;;;25.83;18.03;;;10.60;99.90;;;;;;5039360;28;20285;-63
2023/04/30 01:28:05;;;;;;;25.87;18.00;;;10.50;99.90;;;;;;5028791;28;20198;-63
2023/04/30 01:30:35;;;;;;;24.53;17.63;;;10.50;99.90;;;;;;5039122;28;20174;-63
2023/04/30 01:33:04;;;;;;;23.97;18.00;;;10.50;99.90;;;;;;5027604;28;20197;-64
2023/04/30 01:36:11;;;;;;;26.40;18.37;;;10.40;99.90;;;;;;5032372;28;20189;-64
2023/04/30 01:38:42;;;;;;;25.97;17.60;;;10.40;99.90;;;;;;5015438;28;20196;-64
2023/04/30 01:41:12;;;;;;;24.33;17.73;;;10.40;99.90;;;;;;5038149;28;20502;-65
2023/04/30 01:44:02;;;;;;;22.37;16.90;;;10.30;99.90;;;;;;5044281;28;20184;-65
2023/04/30 01:46:29;;;;;;;23.87;17.93;;;10.30;99.90;;;;;;5061492;28;20201;-65
2023/04/30 01:49:10;;;;;;;24.77;17.93;;;10.30;99.90;;;;;;5052666;28;20185;-65
2023/04/30 01:51:49;;;;;;;24.13;17.33;;;10.20;99.90;;;;;;5024592;28;20197;-65
2023/04/30 01:54:21;;;;;;;27.07;18.53;;;10.20;99.90;;;;;;5035463;28;20197;-65
2023/04/30 01:57:03;;;;;;;26.93;18.27;;;10.20;99.90;;;;;;5045925;28;20248;-65
2023/04/30 01:59:33;;;;;;;24.57;17.67;;;10.20;99.90;;;;;;5034647;28;20182;-65
2023/04/30 02:01:59;;;;;;;24.37;18.27;;;10.20;99.90;;;;;;5035335;28;20197;-65
2023/04/30 02:04:27;;;;;;;24.17;18.00;;;10.10;99.90;;;;;;5031967;28;20177;-65
2023/04/30 02:06:57;;;;;;;23.80;18.50;;;10.10;99.90;;;;;;5026238;28;20197;-65
2023/04/30 02:09:24;;;;;;;27.30;19.23;;;10.20;99.90;;;;;;5034554;28;20196;-65
2023/04/30 02:11:50;;;;;;;27.60;19.80;;;10.10;99.90;;;;;;5034931;28;20174;-65
2023/04/30 02:14:16;;;;;;;28.23;20.00;;;10.10;99.90;;;;;;5047909;28;20208;-65
2023/04/30 02:16:42;;;;;;;25.97;18.93;;;10.00;99.90;;;;;;5029179;28;20185;-65
2023/04/30 02:19:12;;;;;;;28.70;19.93;;;10.00;99.90;;;;;;5027367;28;20220;-65
2023/04/30 02:21:37;;;;;;;29.53;20.37;;;10.00;99.90;;;;;;5035388;28;20255;-65
2023/04/30 02:24:06;;;;;;;32.13;22.10;;;10.00;99.90;;;;;;5034395;28;20178;-66
2023/04/30 02:26:31;;;;;;;30.20;21.63;;;9.90;99.90;;;;;;5031779;28;20274;-65
2023/04/30 02:28:57;;;;;;;30.47;20.80;;;9.90;99.90;;;;;;5030643;28;20768;-65
2023/04/30 02:31:22;;;;;;;29.40;20.27;;;9.90;99.90;;;;;;5042771;28;20178;-65
2023/04/30 02:33:48;;;;;;;29.50;19.73;;;9.80;99.90;;;;;;5026834;28;20178;-65
2023/04/30 02:36:14;;;;;;;27.47;19.20;;;9.70;99.90;;;;;;5028009;28;20208;-64
2023/04/30 02:38:39;;;;;;;27.70;19.87;;;9.70;99.90;;;;;;5031369;28;20194;-65
2023/04/30 02:41:07;;;;;;;28.97;20.37;;;9.70;99.90;;;;;;5032812;28;20178;-66
2023/04/30 02:43:33;;;;;;;27.67;19.90;;;9.70;99.90;;;;;;5031891;28;20248;-65
2023/04/30 02:45:58;;;;;;;28.67;20.37;;;9.60;99.90;;;;;;5028527;28;20210;-65
2023/04/30 02:48:28;;;;;;;26.57;18.67;;;9.60;99.90;;;;;;5029208;28;20216;-64
2023/04/30 02:50:54;;;;;;;27.83;19.50;;;9.60;99.90;;;;;;5027398;28;20194;-64
2023/04/30 02:53:20;;;;;;;28.40;19.77;;;9.50;99.90;;;;;;5029485;28;20189;-64
2023/04/30 02:55:46;;;;;;;26.67;18.93;;;9.50;99.90;;;;;;5030789;28;20189;-65
2023/04/30 02:58:12;;;;;;;26.87;18.53;;;9.50;99.90;;;;;;5028795;28;20185;-65
2023/04/30 03:00:37;;;;;;;28.40;19.40;;;9.50;99.90;;;;;;5031021;28;20197;-65
2023/04/30 03:03:03;;;;;;;28.67;18.93;;;9.50;99.90;;;;;;5030666;28;20197;-65
2023/04/30 03:05:29;;;;;;;30.30;19.57;;;9.40;99.90;;;;;;5032114;28;20197;-65
2023/04/30 03:07:57;;;;;;;28.57;19.60;;;9.40;99.90;;;;;;5031401;28;20174;-66
2023/04/30 03:10:22;;;;;;;28.43;19.50;;;9.40;99.90;;;;;;5030806;28;20198;-65
2023/04/30 03:12:48;;;;;;;28.47;20.57;;;9.50;99.90;;;;;;5034682;28;20238;-65
2023/04/30 03:15:14;;;;;;;29.27;19.67;;;9.40;99.90;;;;;;5037499;28;20166;-65
2023/04/30 03:17:39;;;;;;;29.27;20.40;;;9.50;99.90;;;;;;5036463;28;20216;-65
2023/04/30 03:20:06;;;;;;;30.33;20.57;;;9.50;99.90;;;;;;5034787;28;20189;-65
2023/04/30 03:22:34;;;;;;;28.30;19.73;;;9.50;99.90;;;;;;5028477;28;20189;-66
2023/04/30 03:24:59;;;;;;;32.97;18.70;;;9.60;99.90;;;;;;5036310;28;20240;-64
2023/04/30 03:27:27;;;;;;;26.47;18.67;;;9.60;99.90;;;;;;5033427;28;20174;-66
2023/04/30 03:29:53;;;;;;;26.37;18.00;;;9.60;99.90;;;;;;5036080;28;20284;-65
2023/04/30 03:32:19;;;;;;;25.73;18.37;;;9.60;99.90;;;;;;5034625;28;20381;-66
2023/04/30 03:34:46;;;;;;;28.57;19.17;;;9.60;99.90;;;;;;5038962;28;20170;-65
2023/04/30 03:37:15;;;;;;;27.00;18.43;;;9.60;99.90;;;;;;5039304;28;20252;-64
2023/04/30 03:39:40;;;;;;;26.50;17.93;;;9.60;99.90;;;;;;5031248;28;20182;-64
2023/04/30 03:42:08;;;;;;;28.50;18.93;;;9.60;99.90;;;;;;5026316;28;20187;-64
2023/04/30 03:44:34;;;;;;;26.53;19.13;;;9.50;99.90;;;;;;5034329;28;20260;-64
2023/04/30 03:47:00;;;;;;;26.77;18.50;;;9.50;99.90;;;;;;5034972;28;20209;-64
2023/04/30 03:49:25;;;;;;;28.37;20.00;;;9.50;99.90;;;;;;5033318;28;20268;-64
2023/04/30 03:51:51;;;;;;;26.90;19.10;;;9.40;99.90;;;;;;5035469;28;20248;-64
2023/04/30 03:54:19;;;;;;;26.83;19.23;;;9.30;99.90;;;;;;5033791;28;20186;-64
2023/04/30 03:56:49;;;;;;;26.23;17.83;;;9.30;99.90;;;;;;5033896;28;20182;-64
2023/04/30 03:59:15;;;;;;;32.80;18.50;;;9.30;99.90;;;;;;5034297;28;20189;-64
2023/04/30 04:01:43;;;;;;;25.70;17.63;;;9.20;99.90;;;;;;5028971;28;20186;-64
2023/04/30 04:04:12;;;;;;;27.60;17.40;;;9.20;99.90;;;;;;5033272;28;20210;-63
2023/04/30 04:06:37;;;;;;;24.87;17.47;;;9.10;99.90;;;;;;5033238;28;20274;-64
2023/04/30 04:09:05;;;;;;;35.90;17.43;;;9.10;99.90;;;;;;5034127;28;20174;-64
2023/04/30 04:11:33;;;;;;;23.53;16.97;;;9.00;99.90;;;;;;5044219;28;20189;-65
2023/04/30 04:13:59;;;;;;;24.07;16.63;;;9.00;99.90;;;;;;5045040;28;20177;-65
2023/04/30 04:16:27;;;;;;;28.70;18.40;;;8.90;99.90;;;;;;5033750;28;20201;-65
2023/04/30 04:18:55;;;;;;;29.30;20.80;;;8.90;99.90;;;;;;5032578;28;20174;-66
2023/04/30 04:21:23;;;;;;;28.80;20.57;;;8.90;99.90;;;;;;5033313;28;20185;-65
2023/04/30 04:23:49;;;;;;;34.40;22.17;;;8.90;99.90;;;;;;5036329;28;20206;-66
2023/04/30 04:26:15;;;;;;;27.23;19.70;;;8.80;99.90;;;;;;5031718;28;20216;-65
2023/04/30 04:28:41;;;;;;;28.77;19.83;;;8.80;99.90;;;;;;5032389;28;20232;-65
2023/04/30 04:31:06;;;;;;;30.63;19.87;;;8.80;99.90;;;;;;5029079;28;20206;-65
2023/04/30 04:33:36;;;;;;;30.50;19.60;;;8.90;99.90;;;;;;5028114;28;20175;-65
2023/04/30 04:36:01;;;;;;;30.37;20.40;;;8.90;99.90;;;;;;5030612;28;20188;-65
2023/04/30 04:38:29;;;;;;;40.70;19.87;;;8.90;99.90;;;;;;5032367;28;20178;-65
2023/04/30 04:40:55;;;;;;;42.10;20.73;;;9.00;99.90;;;;;;5031373;28;20178;-65
2023/04/30 04:43:21;;;;;;;44.83;20.63;;;9.00;99.90;;;;;;5031379;28;20174;-66
2023/04/30 04:45:46;;;;;;;42.07;20.37;;;9.10;99.90;;;;;;5032386;28;20216;-66
2023/04/30 04:48:15;;;;;;;41.80;19.30;;;9.10;99.90;;;;;;5031040;28;20198;-65
2023/04/30 04:50:40;;;;;;;31.17;16.87;;;9.10;99.90;;;;;;5033899;28;20269;-65
2023/04/30 04:53:09;;;;;;;36.33;17.33;;;9.20;99.90;;;;;;5030452;28;20178;-65
2023/04/30 04:55:36;;;;;;;36.93;16.43;;;9.70;99.90;;;;;;5030632;28;20185;-65
2023/04/30 04:58:02;;;;;;;32.77;16.67;;;9.30;99.90;;;;;;5035289;28;20177;-66
2023/04/30 05:00:28;;;;;;;37.33;17.07;;;9.30;99.90;;;;;;5032576;28;20373;-65
2023/04/30 05:02:54;;;;;;;31.60;17.27;;;9.40;99.90;;;;;;5034331;28;20188;-65
2023/04/30 05:05:20;;;;;;;32.47;16.77;;;9.40;99.90;;;;;;5033017;28;20201;-65
2023/04/30 05:07:45;;;;;;;30.73;16.97;;;9.50;99.90;;;;;;5026866;28;20178;-67
2023/04/30 05:10:11;;;;;;;26.67;17.27;;;9.50;99.90;;;;;;5030206;28;20182;-65
2023/04/30 05:12:39;;;;;;;34.00;17.70;;;9.50;99.90;;;;;;5032629;28;20201;-66
2023/04/30 05:15:05;;;;;;;29.17;18.60;;;9.60;99.90;;;;;;5029678;28;20186;-66
2023/04/30 05:17:31;;;;;;;27.67;17.83;;;9.60;99.90;;;;;;5032944;28;20261;-65
2023/04/30 05:19:56;;;;;;;31.10;18.63;;;9.60;99.90;;;;;;5029368;28;20281;-65
2023/04/30 05:22:24;;;;;;;27.27;17.47;;;9.70;99.90;;;;;;5030918;28;20194;-65
2023/04/30 05:24:52;;;;;;;26.03;17.03;;;9.70;99.90;;;;;;5032381;28;20195;-66
2023/04/30 05:27:21;;;;;;;25.20;16.93;;;9.80;99.90;;;;;;5025313;28;20250;-65
2023/04/30 05:29:46;;;;;;;28.90;16.37;;;9.80;99.90;;;;;;5024244;28;20178;-66
2023/04/30 05:32:12;;;;;;;35.23;16.83;;;9.80;99.90;;;;;;5032339;28;20197;-65
2023/04/30 05:34:38;;;;;;;23.17;15.57;;;10.00;99.90;;;;;;5033597;28;20476;-65
2023/04/30 05:37:03;;;;;;;28.00;16.67;;;9.90;99.90;;;;;;5032833;28;20194;-66
2023/04/30 05:39:29;;;;;;;28.03;16.33;;;9.80;99.90;;;;;;5035025;28;20190;-66
2023/04/30 05:41:55;;;;;;;30.80;16.30;;;9.80;99.90;;;;;;5036563;28;20200;-65
2023/04/30 05:44:20;;;;;;;23.30;16.13;;;9.80;99.90;;;;;;5050727;28;20197;-66
2023/04/30 05:46:46;;;;;;;26.03;16.40;;;9.80;99.90;;;;;;5036179;28;20205;-66
2023/04/30 05:49:14;;;;;;;28.97;16.47;;;9.80;99.90;;;;;;5054682;28;20181;-66
2023/04/30 05:51:42;;;;;;;31.33;16.57;;;9.70;99.90;;;;;;5035636;28;20284;-66
2023/04/30 05:54:10;;;;;;;26.23;16.97;;;9.60;99.90;;;;;;5034801;28;20193;-65
2023/04/30 05:56:38;;;;;;;23.33;17.07;;;9.70;99.90;;;;;;5031265;28;20198;-65
2023/04/30 05:59:03;;;;;;;25.77;16.03;;;9.70;99.90;;;;;;5054738;28;20263;-66
2023/04/30 06:01:29;;;;;;;30.70;18.10;;;9.60;99.90;;;;;;5054828;28;20225;-65
2023/04/30 06:03:55;;;;;;;25.87;16.93;;;9.60;99.90;;;;;;5037474;28;20180;-65
2023/04/30 06:06:20;;;;;;;24.00;16.73;;;9.50;99.90;;;;;;5034418;28;20288;-65
2023/04/30 06:08:53;;;;;;;23.10;17.10;;;9.60;99.90;;;;;;5034500;28;20217;-65
2023/04/30 06:11:19;;;;;;;25.40;17.77;;;9.60;99.90;;;;;;5043769;28;20174;-66
2023/04/30 06:13:48;;;;;;;31.87;18.40;;;9.60;99.90;;;;;;5033181;28;20174;-65
2023/04/30 06:16:18;;;;;;;24.03;17.67;;;9.70;99.90;;;;;;5026337;28;20249;-66
2023/04/30 06:18:46;;;;;;;31.35;18.67;;;9.70;99.90;;;;;;5032370;28;20177;-66
2023/04/30 06:21:12;;;;;;;28.70;19.23;;;9.80;99.90;;;;;;5024771;28;20210;-65
2023/04/30 06:23:38;;;;;;;28.85;19.65;;;9.80;99.90;;;;;;5014563;28;20178;-66
2023/04/30 06:26:06;;;;;;;31.38;20.52;;;9.90;99.90;;;;;;5027505;28;20195;-66
2023/04/30 06:28:31;;;;;;;30.15;19.27;;;9.90;99.90;;;;;;5031325;28;20171;-66
2023/04/30 06:30:57;;;;;;;27.15;18.55;;;10.10;99.90;;;;;;5029131;28;20188;-65
2023/04/30 06:33:23;;;;;;;26.80;18.73;;;10.10;99.90;;;;;;5027080;28;20194;-66
2023/04/30 06:35:54;;;;;;;27.40;18.38;;;10.30;99.90;;;;;;5031973;28;20185;-66
2023/04/30 06:38:21;;;;;;;26.65;18.27;;;10.30;99.90;;;;;;5029584;28;20216;-66
2023/04/30 06:40:47;;;;;;;28.67;19.20;;;10.50;99.90;;;;;;5021373;28;20174;-65
2023/04/30 06:43:13;;;;;;;27.23;19.15;;;10.50;99.90;;;;;;5031487;28;20315;-67
2023/04/30 06:45:41;;;;;;;29.10;19.83;;;10.60;99.90;;;;;;5029424;28;20212;-66
2023/04/30 06:48:09;;;;;;;27.98;19.80;;;10.70;99.90;;;;;;5034751;28;20181;-65
2023/04/30 06:50:43;;;;;;;27.95;18.88;;;10.70;99.90;;;;;;5036189;28;20308;-65
2023/04/30 06:53:11;;;;;;;31.90;20.20;;;10.90;99.90;;;;;;5036804;28;20280;-65
2023/04/30 06:55:37;;;;;;;27.52;19.00;;;10.80;99.90;;;;;;5036200;28;20185;-65
2023/04/30 06:58:04;;;;;;;29.52;19.83;;;10.90;99.90;;;;;;5031960;28;20194;-65
2023/04/30 07:00:33;;;;;;;29.23;19.25;;;10.90;99.90;;;;;;5035278;28;20265;-64
2023/04/30 07:03:02;;;;;;;27.90;19.10;;;10.90;99.90;;;;;;5030869;28;20178;-66
2023/04/30 07:05:32;;;;;;;29.45;19.92;;;11.00;99.90;;;;;;5032123;28;20201;-65
2023/04/30 07:08:02;;;;;;;29.92;19.63;;;11.00;99.90;;;;;;5034304;28;20178;-65
2023/04/30 07:10:28;;;;;;;32.83;20.92;;;11.10;99.90;;;;;;5031700;28;20194;-66
2023/04/30 07:12:54;;;;;;;30.08;20.27;;;11.10;99.90;;;;;;5032382;28;20193;-65
2023/04/30 07:15:22;;;;;;;29.90;21.08;;;11.10;99.90;;;;;;5030812;28;20206;-64
2023/04/30 07:17:48;;;;;;;29.45;20.67;;;11.20;99.90;;;;;;5032300;28;20190;-65
2023/04/30 07:20:14;;;;;;;29.42;20.60;;;11.20;99.90;;;;;;5030396;28;20262;-64
2023/04/30 07:22:44;;;;;;;26.00;19.27;;;11.20;99.90;;;;;;5028995;28;20192;-65
2023/04/30 07:25:13;;;;;;;28.83;20.77;;;11.20;99.90;;;;;;5032304;28;20178;-65
2023/04/30 07:27:42;;;;;;;32.88;23.10;;;11.20;99.90;;;;;;5042518;28;20354;-64
2023/04/30 07:30:09;;;;;;;30.98;21.27;;;11.20;99.90;;;;;;5036085;28;20189;-65
2023/04/30 07:32:36;;;;;;;29.90;20.60;;;11.30;99.90;;;;;;5033224;28;20185;-64
2023/04/30 07:35:02;;;;;;;28.73;20.48;;;11.30;99.90;;;;;;5031917;28;20210;-64
2023/04/30 07:37:30;;;;;;;31.38;21.17;;;11.30;99.90;;;;;;5034516;28;20209;-65
2023/04/30 07:39:58;;;;;;;35.20;22.08;;;11.40;99.90;;;;;;5032692;28;20468;-65
2023/04/30 07:42:26;;;;;;;30.45;21.77;;;11.40;99.90;;;;;;5045970;28;20220;-67
2023/04/30 07:44:54;;;;;;;32.10;21.85;;;11.50;99.90;;;;;;5037090;28;20205;-64
2023/04/30 07:47:24;;;;;;;32.08;21.42;;;11.50;99.90;;;;;;5035770;28;20205;-64
2023/04/30 07:49:50;;;;;;;33.88;21.83;;;11.50;99.90;;;;;;5035497;28;20195;-64
2023/04/30 07:52:16;;;;;;;31.17;22.20;;;11.60;99.90;;;;;;5054200;28;20221;-64
2023/04/30 07:54:41;;;;;;;32.20;21.40;;;11.60;99.90;;;;;;5032252;28;20212;-64
2023/04/30 07:57:07;;;;;;;30.33;21.40;;;11.70;99.90;;;;;;5036015;28;20185;-64
2023/04/30 07:59:33;;;;;;;28.50;21.67;;;11.80;99.90;;;;;;5036374;28;20201;-65
2023/04/30 08:01:58;;;;;;;28.10;19.88;;;11.80;99.90;;;;;;5039815;28;20202;-64
2023/04/30 08:04:24;;;;;;;27.73;19.33;;;11.90;99.90;;;;;;5037344;28;20177;-64
2023/04/30 08:06:50;;;;;;;25.60;18.58;;;12.00;99.90;;;;;;5035292;28;20221;-64
2023/04/30 08:09:18;;;;;;;29.98;20.08;;;12.10;99.90;;;;;;5045815;28;20181;-65
2023/04/30 08:11:43;;;;;;;35.50;23.38;;;12.10;99.90;;;;;;5040714;28;20174;-64
2023/04/30 08:14:11;;;;;;;27.60;20.70;;;12.20;99.90;;;;;;5036592;28;20184;-64
2023/04/30 08:16:39;;;;;;;29.35;20.60;;;12.20;99.90;;;;;;5036359;28;20181;-64
2023/04/30 08:19:07;;;;;;;27.02;20.48;;;12.30;99.90;;;;;;5031561;28;20174;-64
2023/04/30 08:21:37;;;;;;;26.10;19.75;;;12.40;99.90;;;;;;5033643;28;20225;-63
2023/04/30 08:24:05;;;;;;;24.70;18.13;;;12.60;99.90;;;;;;5035528;28;20169;-64
2023/04/30 08:26:31;;;;;;;23.15;17.85;;;12.60;99.90;;;;;;5030649;28;20189;-67
2023/04/30 08:28:58;;;;;;;21.02;16.67;;;12.70;99.90;;;;;;5031845;28;20194;-65
2023/04/30 08:31:24;;;;;;;18.90;14.25;;;12.80;99.90;;;;;;5032332;28;20177;-64
2023/04/30 08:33:50;;;;;;;15.57;13.00;;;13.00;99.90;;;;;;5028876;28;20248;-65
2023/04/30 08:36:16;;;;;;;15.45;12.85;;;13.00;99.90;;;;;;5034749;28;20187;-64
2023/04/30 08:38:43;;;;;;;15.52;12.63;;;13.20;99.90;;;;;;5029961;28;20194;-64
2023/04/30 08:41:15;;;;;;;13.73;11.82;;;13.30;99.90;;;;;;5032031;28;20225;-63
2023/04/30 08:43:44;;;;;;;13.75;11.48;;;13.40;99.90;;;;;;5030366;28;20190;-64
2023/04/30 08:46:15;;;;;;;12.38;11.02;;;13.50;99.90;;;;;;5034057;28;20197;-64
2023/04/30 08:48:44;;;;;;;11.90;10.68;;;13.60;99.90;;;;;;5031350;28;20197;-64
2023/04/30 08:51:10;;;;;;;12.32;9.77;;;13.60;99.90;;;;;;5032005;28;20327;-64
2023/04/30 08:53:37;;;;;;;13.00;10.23;;;13.70;99.90;;;;;;5033207;28;20212;-63
2023/04/30 08:56:03;;;;;;;12.18;9.82;;;13.80;99.90;;;;;;5028611;28;20208;-63
2023/04/30 08:58:29;;;;;;;12.45;9.77;;;13.90;99.90;;;;;;5031068;28;20174;-64
2023/04/30 09:01:00;;;;;;;9.95;8.05;;;14.00;99.90;;;;;;5034389;28;20260;-64
2023/04/30 09:03:27;;;;;;;11.23;8.52;;;14.10;99.90;;;;;;5027893;28;20201;-63
2023/04/30 09:05:54;;;;;;;9.90;7.90;;;14.20;99.90;;;;;;5034542;28;20221;-64
2023/04/30 09:08:46;;;;;;;9.60;7.30;;;14.30;99.90;;;;;;5031659;28;20174;-66
2023/04/30 09:11:31;;;;;;;8.05;7.18;;;14.50;99.90;;;;;;5032744;28;20177;-64
2023/04/30 09:13:58;;;;;;;7.88;6.38;;;14.70;99.90;;;;;;5033187;28;20221;-77
2023/04/30 09:16:31;;;;;;;6.95;5.72;;;14.80;99.90;;;;;;5029861;28;20174;-74
2023/04/30 09:18:57;;;;;;;6.10;5.50;;;15.00;99.90;;;;;;5024069;28;20205;-77
2023/04/30 09:21:34;;;;;;;6.60;5.25;;;15.00;99.90;;;;;;5036567;28;20268;-80
2023/04/30 09:24:02;;;;;;;5.40;4.50;;;15.20;99.90;;;;;;5031142;28;20187;-75
2023/04/30 09:26:33;;;;;;;5.13;4.63;;;15.40;99.90;;;;;;5029991;28;20284;-70
2023/04/30 09:29:06;;;;;;;4.22;3.75;;;15.50;99.90;;;;;;5031910;28;20178;-75
2023/04/30 09:31:36;;;;;;;3.63;3.03;;;15.60;99.90;;;;;;5031462;28;20293;-78
2023/04/30 09:34:07;;;;;;;4.25;2.75;;;15.70;99.90;;;;;;5032354;28;20174;-78
2023/04/30 09:36:33;;;;;;;3.38;2.83;;;15.90;99.90;;;;;;5032799;28;20182;-74
2023/04/30 09:39:07;;;;;;;2.90;2.60;;;15.90;99.90;;;;;;5043280;28;20208;-77
2023/04/30 09:41:33;;;;;;;2.92;2.60;;;16.10;99.90;;;;;;5055821;28;20175;-77
2023/04/30 09:44:00;;;;;;;2.45;2.20;;;16.20;99.90;;;;;;5037169;28;20257;-77
2023/04/30 09:46:37;;;;;;;2.53;2.28;;;16.30;99.90;;;;;;5035721;28;20202;-71
2023/04/30 09:49:04;;;;;;;2.25;2.05;;;16.50;99.90;;;;;;5035650;28;20205;-74
2023/04/30 09:51:30;;;;;;;2.67;1.98;;;16.60;99.90;;;;;;5042053;28;20204;-79
2023/04/30 09:53:56;;;;;;;3.15;2.20;;;16.70;99.90;;;;;;5040160;28;20186;-78
2023/04/30 09:56:26;;;;;;;2.95;2.22;;;16.80;99.90;;;;;;5034783;28;20206;-81
2023/04/30 09:58:57;;;;;;;2.20;2.00;;;17.00;99.90;;;;;;5034845;28;23800;-80
2023/04/30 10:01:27;;;;;;;2.20;1.88;;;17.10;99.90;;;;;;5035040;28;20189;-79
2023/04/30 10:03:56;;;;;;;2.50;1.85;;;17.20;99.90;;;;;;5038811;28;20221;-79
2023/04/30 10:06:28;;;;;;;2.50;1.98;;;17.30;99.90;;;;;;5048565;28;20189;-80
2023/04/30 10:08:56;;;;;;;3.17;1.80;;;17.40;99.90;;;;;;5035145;28;20200;-77
2023/04/30 10:11:28;;;;;;;3.67;2.97;;;17.60;99.90;;;;;;5035873;28;20251;-78
2023/04/30 10:13:57;;;;;;;3.30;2.92;;;17.80;99.90;;;;;;5035458;28;20162;-71
2023/04/30 10:16:25;;;;;;;3.13;2.55;;;18.10;99.90;;;;;;5050961;28;20198;-75
2023/04/30 10:18:57;;;;;;;2.60;2.40;;;18.50;99.90;;;;;;5031532;28;20179;-78
2023/04/30 10:21:25;;;;;;;2.58;1.98;;;19.00;99.90;;;;;;5015441;28;20342;-75
2023/04/30 10:23:53;;;;;;;5.95;2.20;;;19.40;99.90;;;;;;5023566;28;20311;-74
2023/04/30 10:26:19;;;;;;;3.15;2.40;;;19.80;99.90;;;;;;5031315;28;20286;-75
2023/04/30 10:28:47;;;;;;;2.20;2.00;;;20.20;99.90;;;;;;5029537;28;20182;-73
2023/04/30 10:31:14;;;;;;;1.90;1.80;;;20.60;99.90;;;;;;5029777;28;20181;-72
2023/04/30 10:33:51;;;;;;;3.03;2.00;;;20.90;99.90;;;;;;5029349;28;20190;-74
2023/04/30 10:36:29;;;;;;;2.28;1.70;;;21.20;99.90;;;;;;5030226;28;20177;-74
2023/04/30 10:38:58;;;;;;;4.05;2.60;;;21.50;99.90;;;;;;5031242;28;20203;-74
2023/04/30 10:41:28;;;;;;;1.90;1.70;;;21.70;99.90;;;;;;5030273;28;20185;-68
2023/04/30 10:44:01;;;;;;;2.60;1.40;;;21.90;99.90;;;;;;5028450;28;20216;-78
2023/04/30 10:46:29;;;;;;;1.25;1.15;;;22.10;99.90;;;;;;5026598;28;20210;-78
2023/04/30 10:48:55;;;;;;;1.30;1.20;;;22.20;99.90;;;;;;5027434;28;20178;-80
2023/04/30 10:51:21;;;;;;;1.38;1.20;;;22.40;99.90;;;;;;5030760;28;20204;-78
2023/04/30 10:53:52;;;;;;;1.33;1.00;;;22.40;99.90;;;;;;5033201;28;20178;-77
2023/04/30 10:56:32;;;;;;;1.15;0.93;;;22.30;99.90;;;;;;5033402;28;20269;-80
2023/04/30 10:59:01;;;;;;;1.20;0.88;;;22.10;99.90;;;;;;5020602;28;20202;-80
2023/04/30 11:01:27;;;;;;;1.42;1.00;;;22.10;99.90;;;;;;5033678;28;20178;-79
2023/04/30 11:04:05;;;;;;;1.80;1.00;;;22.10;99.90;;;;;;5023915;28;20449;-79
2023/04/30 11:06:52;;;;;;;1.10;1.00;;;22.30;99.90;;;;;;5020784;28;20194;-71
2023/04/30 11:09:44;;;;;;;1.77;1.20;;;22.40;99.90;;;;;;5044987;28;20209;-79
2023/04/30 11:12:27;;;;;;;1.63;1.50;;;22.50;99.90;;;;;;5030637;28;20204;-78
2023/04/30 11:15:04;;;;;;;1.95;1.63;;;22.60;99.90;;;;;;5050620;28;20192;-79
2023/04/30 11:17:31;;;;;;;2.08;1.40;;;22.70;99.90;;;;;;5032984;28;20174;-78
2023/04/30 11:20:01;;;;;;;1.27;1.00;;;22.70;99.90;;;;;;5026274;28;20252;-77
2023/04/30 11:22:35;;;;;;;1.15;0.95;;;22.70;99.90;;;;;;5031991;28;20179;-80
2023/04/30 11:25:04;;;;;;;1.10;0.85;;;22.80;99.90;;;;;;5035599;28;20279;-79
2023/04/30 11:27:32;;;;;;;1.30;0.80;;;23.00;99.90;;;;;;5027667;28;20202;-79
2023/04/30 11:29:59;;;;;;;0.68;0.68;;;23.10;99.90;;;;;;5033261;28;20178;-79
2023/04/30 11:32:31;;;;;;;1.00;0.70;;;23.20;99.90;;;;;;5036652;28;20212;-74
2023/04/30 11:35:03;;;;;;;0.88;0.70;;;23.30;99.90;;;;;;5053164;28;20201;-79
2023/04/30 11:37:45;;;;;;;0.60;0.50;;;23.40;99.90;;;;;;5034849;28;20183;-76
2023/04/30 11:40:16;;;;;;;1.05;0.70;;;23.50;99.90;;;;;;5033614;28;20281;-80
2023/04/30 11:42:43;;;;;;;1.10;0.70;;;23.60;99.90;;;;;;5037750;28;20177;-78
2023/04/30 11:45:08;;;;;;;0.90;0.70;;;23.80;99.90;;;;;;5057566;28;20280;-79
2023/04/30 11:47:41;;;;;;;0.63;0.63;;;23.80;99.90;;;;;;5046216;28;20270;-79
2023/04/30 11:50:12;;;;;;;0.70;0.70;;;23.90;99.90;;;;;;5037128;28;20194;-78
2023/04/30 11:52:42;;;;;;;1.33;0.80;;;23.90;99.90;;;;;;5033353;28;20264;-80
2023/04/30 11:55:14;;;;;;;1.60;0.70;;;23.90;99.90;;;;;;5017817;28;20183;-77
2023/04/30 11:57:48;;;;;;;0.75;0.70;;;24.00;99.90;;;;;;5024417;28;20259;-80
2023/04/30 12:00:25;;;;;;;0.93;0.85;;;24.10;99.90;;;;;;5017194;28;20269;-79
2023/04/30 12:02:52;;;;;;;0.82;0.70;;;24.20;99.90;;;;;;5017569;28;20166;-76
2023/04/30 12:05:20;;;;;;;0.95;0.75;;;24.30;99.90;;;;;;5036457;28;20212;-80
2023/04/30 12:08:08;;;;;;;0.57;0.57;;;24.40;99.90;;;;;;5036626;28;20170;-78
2023/04/30 12:10:34;;;;;;;1.13;0.70;;;24.40;99.90;;;;;;5036579;28;20174;-78
2023/04/30 12:13:05;;;;;;;0.50;0.50;;;24.40;99.90;;;;;;5036423;28;20205;-78
2023/04/30 12:15:31;;;;;;;0.52;0.50;;;24.40;99.90;;;;;;5031543;28;20174;-78
2023/04/30 12:17:58;;;;;;;0.50;0.50;;;24.40;99.90;;;;;;5031695;28;20255;-78
2023/04/30 12:20:27;;;;;;;0.70;0.50;;;24.50;99.90;;;;;;5036440;28;20185;-79
2023/04/30 12:22:53;;;;;;;0.77;0.50;;;24.50;99.90;;;;;;5036105;28;20169;-79
2023/04/30 12:25:22;;;;;;;0.60;0.52;;;24.60;99.90;;;;;;5032417;28;20198;-77
2023/04/30 12:27:50;;;;;;;1.00;0.50;;;24.70;99.90;;;;;;5036688;28;20181;-78
2023/04/30 12:30:23;;;;;;;0.82;0.60;;;24.70;99.90;;;;;;5032534;28;20189;-74
2023/04/30 12:32:51;;;;;;;2.17;0.50;;;24.90;99.90;;;;;;5038568;28;20201;-78
2023/04/30 12:35:20;;;;;;;0.60;0.50;;;24.90;99.90;;;;;;5035565;28;20178;-79
2023/04/30 12:37:51;;;;;;;1.35;0.70;;;25.00;99.90;;;;;;5035593;28;20208;-80
2023/04/30 12:40:25;;;;;;;0.40;0.40;;;25.00;99.90;;;;;;5034793;28;20211;-76
2023/04/30 12:42:58;;;;;;;0.60;0.50;;;25.00;99.90;;;;;;5044545;28;20474;-78